Time;durP1;ratioP1;P1;durP2;ratioP2;P2;SDS_P1;SDS_P2;PMS_P1;PMS_P2;Temp;Humidity;BMP_temperature;BMP_pressure;BME280_temperature;BME280_humidity;BME280_pressure;Samples;Min_cycle;Max_cycle;Signal;HPM_P1;HPM_P2
2022/05/26 00:02:15;;;;;;;36.47;25.55;;;;;;;19.85;68.60;99305.34;4939207;29;20469;-92
2022/05/26 00:04:41;;;;;;;33.45;25.63;;;;;;;19.86;68.97;99309.69;4938879;28;20023;-92
2022/05/26 00:07:07;;;;;;;33.97;24.80;;;;;;;19.62;69.97;99309.50;4922377;29;20537;-93
2022/05/26 00:09:33;;;;;;;40.45;25.98;;;;;;;19.55;69.92;99302.63;4923469;29;20019;-93
2022/05/26 00:11:58;;;;;;;33.88;26.88;;;;;;;19.45;70.37;99304.94;4939765;29;20039;-94
2022/05/26 00:14:24;;;;;;;31.42;27.40;;;;;;;19.29;70.30;99275.44;4922797;29;20047;-94
2022/05/26 00:16:49;;;;;;;35.90;27.58;;;;;;;19.27;70.73;99279.63;4923272;29;20034;-94
2022/05/26 00:19:16;;;;;;;31.65;26.55;;;;;;;19.39;70.14;99307.03;4923467;29;20031;-93
2022/05/26 00:21:42;;;;;;;38.78;27.65;;;;;;;19.24;70.91;99288.50;4939534;29;20414;-92
2022/05/26 00:24:08;;;;;;;32.53;26.73;;;;;;;19.22;70.25;99286.09;4923225;29;20031;-93
2022/05/26 00:26:33;;;;;;;32.58;26.38;;;;;;;19.28;70.79;99303.88;4938573;29;20054;-93
2022/05/26 00:28:59;;;;;;;30.17;26.30;;;;;;;19.30;70.45;99292.63;4923220;29;20027;-95
2022/05/26 00:31:24;;;;;;;33.08;25.90;;;;;;;19.23;70.25;99290.41;4923733;29;20028;-95
2022/05/26 00:33:50;;;;;;;33.75;25.83;;;;;;;19.14;71.28;99311.50;4922435;29;20066;-93
2022/05/26 00:36:16;;;;;;;33.22;26.83;;;;;;;19.09;71.56;99314.38;4938434;29;20020;-95
2022/05/26 00:38:42;;;;;;;38.88;28.02;;;;;;;19.08;71.62;99319.06;4922765;29;20034;-92
2022/05/26 00:41:10;;;;;;;31.88;26.90;;;;;;;19.09;71.64;99319.84;4939089;29;20038;-93
2022/05/26 00:43:40;;;;;;;30.52;26.95;;;;;;;19.01;71.70;99316.03;4938799;29;20023;-94
2022/05/26 00:46:09;;;;;;;34.08;27.73;;;;;;;18.80;71.96;99296.84;4938876;29;20403;-92
2022/05/26 00:48:49;;;;;;;31.15;26.38;;;;;;;18.76;72.01;99304.84;4923698;29;20386;-94
2022/05/26 00:51:15;;;;;;;30.85;26.55;;;;;;;18.71;72.02;99293.28;4939337;29;20481;-94
2022/05/26 00:53:47;;;;;;;31.67;27.65;;;;;;;18.62;72.57;99289.78;4924250;29;20170;-94
2022/05/26 00:56:17;;;;;;;34.90;28.70;;;;;;;18.53;72.28;99282.44;4939169;29;20027;-94
2022/05/26 00:58:44;;;;;;;34.03;28.27;;;;;;;18.61;72.24;99299.09;4922531;29;20023;-94
2022/05/26 01:01:10;;;;;;;35.72;28.85;;;;;;;18.57;72.40;99288.00;4923383;29;20496;-94
2022/05/26 01:03:57;;;;;;;32.75;27.85;;;;;;;18.49;72.75;99281.47;4922463;29;20023;-93
2022/05/26 01:06:26;;;;;;;35.83;27.15;;;;;;;18.55;72.69;99277.44;4939790;29;20521;-94
2022/05/26 01:08:55;;;;;;;35.17;28.63;;;;;;;18.46;73.42;99286.75;4938718;29;20039;-93
2022/05/26 01:11:26;;;;;;;35.40;28.13;;;;;;;18.33;73.62;99267.53;4938864;29;20532;-94
2022/05/26 01:13:54;;;;;;;39.70;29.35;;;;;;;18.35;74.18;99284.38;4938408;29;20118;-94
2022/05/26 01:16:37;;;;;;;34.60;28.75;;;;;;;18.52;73.17;99288.19;4923454;28;20049;-93
2022/05/26 01:19:18;;;;;;;37.97;27.23;;;;;;;18.58;72.95;99286.91;4942340;29;20076;-94
2022/05/26 01:22:19;;;;;;;33.60;27.65;;;;;;;18.69;72.70;99287.34;4945356;29;20031;-95
2022/05/26 01:24:47;;;;;;;33.95;27.98;;;;;;;18.63;72.87;99281.28;4908928;29;20182;-95
2022/05/26 01:27:16;;;;;;;35.28;28.10;;;;;;;18.66;72.69;99283.34;4974106;28;20034;-95
2022/05/26 01:29:53;;;;;;;34.67;29.08;;;;;;;18.72;72.56;99292.97;4941925;29;20027;-95
2022/05/26 01:32:37;;;;;;;33.10;28.15;;;;;;;18.65;72.51;99273.56;4941901;29;20050;-94
2022/05/26 01:35:15;;;;;;;30.25;25.90;;;;;;;18.72;72.11;99282.06;4973640;28;20117;-95
2022/05/26 01:38:10;;;;;;;32.90;27.00;;;;;;;18.70;71.69;99265.22;4941913;29;20508;-93
2022/05/26 01:41:12;;;;;;;30.55;26.38;;;;;;;18.71;72.14;99288.63;4928749;29;20469;-94
2022/05/26 01:43:52;;;;;;;36.35;27.15;;;;;;;18.57;72.64;99293.47;4902887;29;20070;-93
2022/05/26 01:46:38;;;;;;;32.95;27.23;;;;;;;18.47;72.90;99302.81;4943062;29;20118;-94
2022/05/26 01:49:22;;;;;;;34.78;27.95;;;;;;;18.47;72.87;99302.81;4941779;29;20560;-94
2022/05/26 01:51:56;;;;;;;43.40;26.83;;;;;;;18.24;72.98;99282.28;4941848;29;20110;-94
2022/05/26 01:54:31;;;;;;;34.53;26.13;;;;;;;18.31;73.30;99301.69;4926568;29;20086;-95
2022/05/26 01:57:06;;;;;;;32.72;27.95;;;;;;;18.07;73.54;99286.63;4973870;28;20034;-95
2022/05/26 01:59:49;;;;;;;31.60;27.08;;;;;;;18.15;73.39;99304.09;4942730;29;20122;-95
2022/05/26 02:02:28;;;;;;;33.22;26.40;;;;;;;17.96;73.15;99285.34;4942683;29;20497;-95
2022/05/26 02:04:58;;;;;;;32.35;27.95;;;;;;;18.02;73.07;99305.84;4925903;29;20118;-94
2022/05/26 02:07:27;;;;;;;34.08;27.52;;;;;;;17.97;73.27;99308.72;4925539;29;20429;-94
2022/05/26 02:09:53;;;;;;;30.23;26.83;;;;;;;17.90;73.63;99314.66;4926027;29;20023;-95
2022/05/26 02:12:21;;;;;;;35.35;27.40;;;;;;;18.00;73.63;99342.72;4926280;29;20042;-92
2022/05/26 02:15:01;;;;;;;38.47;28.55;;;;;;;17.88;74.36;99324.28;4940702;29;20077;-92
2022/05/26 02:17:29;;;;;;;40.85;29.00;;;;;;;17.96;74.00;99331.66;4926436;29;20089;-93
2022/05/26 02:20:04;;;;;;;32.20;28.70;;;;;;;17.88;74.31;99322.34;4940836;29;20090;-92
2022/05/26 02:22:36;;;;;;;34.28;28.85;;;;;;;17.84;74.25;99315.91;4941413;29;20035;-93
2022/05/26 02:25:16;;;;;;;32.25;28.48;;;;;;;17.99;74.04;99344.63;4925370;29;20055;-93
2022/05/26 02:27:42;;;;;;;33.60;27.58;;;;;;;17.91;73.83;99331.81;4940908;28;20062;-92
2022/05/26 02:30:09;;;;;;;32.05;27.42;;;;;;;17.90;73.68;99316.59;4923713;29;20054;-92
2022/05/26 02:32:40;;;;;;;32.50;29.00;;;;;;;17.89;74.04;99325.88;4925175;29;20027;-92
2022/05/26 02:35:11;;;;;;;37.28;28.77;;;;;;;17.78;74.36;99330.78;4925024;29;20034;-91
2022/05/26 02:37:37;;;;;;;38.50;28.10;;;;;;;17.90;74.22;99341.09;4940827;29;20094;-93
2022/05/26 02:40:04;;;;;;;37.03;28.42;;;;;;;17.82;74.29;99345.38;4924945;29;20027;-92
2022/05/26 02:42:30;;;;;;;36.60;28.48;;;;;;;17.77;74.03;99332.72;4940310;29;20129;-92
2022/05/26 02:44:55;;;;;;;32.53;27.00;;;;;;;17.94;73.50;99342.06;4924352;29;20075;-92
2022/05/26 02:47:35;;;;;;;39.90;27.35;;;;;;;18.02;74.01;99367.72;4924655;29;20035;-92
2022/05/26 02:50:16;;;;;;;37.78;28.05;;;;;;;17.91;74.25;99365.31;4940202;29;20098;-92
2022/05/26 02:52:50;;;;;;;33.30;28.27;;;;;;;17.86;74.04;99359.19;4940908;29;20397;-93
2022/05/26 02:55:38;;;;;;;34.97;28.00;;;;;;;17.80;74.09;99361.22;4924870;29;20059;-93
2022/05/26 02:58:24;;;;;;;42.05;29.52;;;;;;;17.78;74.71;99363.47;4941716;29;20410;-92
2022/05/26 03:01:23;;;;;;;45.30;28.77;;;;;;;17.77;74.46;99375.50;4940663;29;20031;-91
2022/05/26 03:03:51;;;;;;;36.42;28.35;;;;;;;17.75;74.69;99366.84;4942012;29;20067;-92
2022/05/26 03:06:30;;;;;;;36.20;28.48;;;;;;;17.71;74.42;99363.94;4940139;29;20038;-92
2022/05/26 03:08:56;;;;;;;36.17;28.65;;;;;;;17.59;74.40;99358.28;4941256;29;20128;-92
2022/05/26 03:11:23;;;;;;;42.47;30.33;;;;;;;17.64;74.91;99374.50;4924579;29;20098;-92
2022/05/26 03:13:50;;;;;;;38.08;28.20;;;;;;;17.64;74.51;99374.50;4923850;29;20055;-91
2022/05/26 03:16:15;;;;;;;40.10;28.63;;;;;;;17.61;74.13;99363.41;4924848;29;20031;-91
2022/05/26 03:18:41;;;;;;;38.30;29.58;;;;;;;17.46;74.40;99349.13;4923841;29;20501;-92
2022/05/26 03:21:08;;;;;;;39.00;27.92;;;;;;;17.61;74.04;99358.78;4923652;29;20085;-92
2022/05/26 03:23:33;;;;;;;42.08;29.52;;;;;;;17.53;74.47;99356.81;4939806;29;20090;-92
2022/05/26 03:25:59;;;;;;;44.90;30.52;;;;;;;17.53;74.58;99371.22;4926272;29;20458;-92
2022/05/26 03:28:26;;;;;;;43.78;32.83;;;;;;;17.54;74.53;99383.75;4960551;28;20039;-94
2022/05/26 03:30:51;;;;;;;43.58;32.05;;;;;;;17.58;74.48;99386.66;4940147;29;20031;-94
2022/05/26 03:33:17;;;;;;;40.55;29.45;;;;;;;17.64;74.19;99390.84;4923767;29;20031;-93
2022/05/26 03:41:20;;;;;;;40.92;30.50;;;;;;;17.87;73.76;99420.75;4942662;29;20046;-92
2022/05/26 03:43:54;;;;;;;49.25;33.67;;;;;;;17.89;73.93;99410.34;4923788;29;20027;-92
2022/05/26 03:46:19;;;;;;;43.08;30.95;;;;;;;17.87;73.98;99423.47;4940193;29;20031;-93
2022/05/26 03:48:45;;;;;;;50.45;32.30;;;;;;;17.95;73.83;99422.66;4923985;29;20038;-93
2022/05/26 03:51:12;;;;;;;49.67;32.97;;;;;;;17.96;73.97;99438.69;4923737;29;20034;-95
2022/05/26 03:53:37;;;;;;;44.75;36.17;;;;;;;17.72;74.84;99444.53;4925917;29;20046;-95
2022/05/26 03:56:04;;;;;;;49.83;36.92;;;;;;;17.57;74.76;99436.75;4928225;29;20031;-95
2022/05/26 03:58:31;;;;;;;64.78;37.13;;;;;;;17.50;75.54;99430.97;4946905;29;20027;-95
2022/05/26 04:01:03;;;;;;;48.00;34.33;;;;;;;17.53;74.98;99422.97;4943747;29;20027;-95
2022/05/26 04:03:29;;;;;;;;;;;;;;;17.96;74.43;99485.00;4926840;29;20042;-96
2022/05/26 04:05:55;;;;;;;50.35;33.58;;;;;;;17.84;74.43;99452.13;4958544;29;19910;-95
2022/05/26 04:08:21;;;;;;;52.60;32.70;;;;;;;17.91;74.59;99466.09;4925494;29;20030;-96
2022/05/26 04:10:47;;;;;;;50.22;32.50;;;;;;;17.87;75.19;99477.94;4924155;29;20035;-94
2022/05/26 04:13:15;;;;;;;41.45;30.58;;;;;;;17.94;74.99;99487.25;4925195;29;20063;-96
2022/05/26 04:15:40;;;;;;;44.58;31.83;;;;;;;17.89;74.56;99483.88;4942044;29;20042;-94
2022/05/26 04:18:06;;;;;;;43.85;30.52;;;;;;;18.01;74.45;99496.88;4926749;29;20094;-96
2022/05/26 04:20:31;;;;;;;46.80;32.72;;;;;;;17.81;74.91;99482.69;4926190;29;20023;-93
2022/05/26 04:22:59;;;;;;;42.50;30.70;;;;;;;17.95;75.08;99510.66;4925426;29;20023;-94
2022/05/26 04:25:25;;;;;;;49.83;30.45;;;;;;;17.91;74.92;99498.78;4925451;29;20038;-95
2022/05/26 04:27:53;;;;;;;50.28;30.02;;;;;;;17.87;74.74;99488.84;4941505;29;20033;-95
2022/05/26 04:30:19;;;;;;;41.83;30.83;;;;;;;18.01;74.92;99514.03;4925149;29;20049;-94
2022/05/26 04:32:47;;;;;;;47.72;29.35;;;;;;;18.08;74.48;99519.06;4941204;29;20461;-94
2022/05/26 04:35:12;;;;;;;44.08;29.10;;;;;;;18.13;73.80;99511.50;4925249;29;20037;-95
2022/05/26 04:37:38;;;;;;;47.00;29.77;;;;;;;18.29;73.85;99538.38;4923454;29;20480;-96
2022/05/26 04:40:04;;;;;;;46.40;28.38;;;;;;;18.43;72.84;99532.78;4923977;29;20027;-94
2022/05/26 04:42:30;;;;;;;47.67;28.33;;;;;;;18.56;72.35;99537.31;4923346;29;20509;-92
2022/05/26 04:44:56;;;;;;;44.67;27.02;;;;;;;18.91;71.96;99556.50;4922681;29;20047;-94
2022/05/26 04:47:22;;;;;;;54.33;27.90;;;;;;;18.88;71.54;99551.66;4923841;29;20027;-92
2022/05/26 04:49:48;;;;;;;56.47;28.35;;;;;;;18.98;71.12;99554.88;4924062;29;20030;-92
2022/05/26 04:52:17;;;;;;;49.33;28.25;;;;;;;19.04;70.92;99538.38;4939051;29;20030;-91
2022/05/26 04:54:44;;;;;;;40.70;26.55;;;;;;;19.23;70.37;99557.13;4955431;29;20027;-92
2022/05/26 04:57:09;;;;;;;77.25;31.63;;;;;;;19.28;70.79;99548.78;4923962;29;20024;-92
2022/05/26 04:59:35;;;;;;;43.70;26.48;;;;;;;19.43;70.02;99553.75;4923191;29;20082;-92
2022/05/26 05:04:35;;;;;;;36.75;26.48;;;;;;;19.61;69.27;99554.53;4972164;23;20046;-93
2022/05/26 05:07:01;;;;;;;41.85;27.42;;;;;;;19.67;69.03;99561.44;4924056;29;20038;-93
2022/05/26 05:09:26;;;;;;;52.78;29.23;;;;;;;19.77;69.09;99577.50;4924261;29;20421;-93
2022/05/26 05:11:52;;;;;;;45.08;27.90;;;;;;;19.81;68.94;99583.13;4908212;29;20035;-93
2022/05/26 05:14:17;;;;;;;42.67;27.75;;;;;;;19.78;68.63;99564.66;4907354;29;20074;-92
2022/05/26 05:16:43;;;;;;;50.10;27.45;;;;;;;19.97;68.61;99581.47;4907468;29;20095;-92
2022/05/26 05:19:13;;;;;;;44.47;27.90;;;;;;;20.03;69.36;99575.84;4918128;28;20077;-92
2022/05/26 05:21:51;;;;;;;35.45;25.65;;;;;;;20.17;69.16;99587.34;4926337;29;20034;-92
2022/05/26 05:24:22;;;;;;;41.47;26.10;;;;;;;20.14;68.92;99561.47;4963425;28;20054;-93
2022/05/26 05:26:50;;;;;;;39.58;21.40;;;;;;;20.19;68.99;99568.69;4958008;28;20035;-91
2022/05/26 05:29:16;;;;;;;36.58;19.45;;;;;;;20.36;68.87;99568.63;4943057;28;20023;-91
2022/05/26 05:31:50;;;;;;;50.45;22.52;;;;;;;20.45;68.66;99565.06;4942983;28;20093;-89
2022/05/26 05:34:18;;;;;;;38.67;23.02;;;;;;;20.68;68.44;99580.06;4945002;29;20031;-91
2022/05/26 05:36:44;;;;;;;28.77;20.90;;;;;;;20.71;67.82;99573.13;4939884;28;20131;-93
2022/05/26 05:39:18;;;;;;;44.35;20.90;;;;;;;20.58;68.73;99567.56;4927223;28;20031;-92
2022/05/26 05:41:44;;;;;;;65.25;48.42;;;;;;;20.82;68.24;99587.25;4948039;28;20031;-92
2022/05/26 05:44:09;;;;;;;48.75;31.65;;;;;;;20.81;68.56;99583.69;4927213;28;20027;-93
2022/05/26 05:46:53;;;;;;;44.10;33.15;;;;;;;20.89;68.37;99592.97;4940525;29;20165;-93
2022/05/26 05:49:22;;;;;;;34.92;20.00;;;;;;;21.01;67.33;99590.31;4929529;29;20122;-91
2022/05/26 05:54:29;;;;;;;26.40;18.40;;;;;;;21.30;66.96;99605.91;4937938;28;20048;-96
2022/05/26 05:56:55;;;;;;;23.77;16.92;;;;;;;21.21;67.21;99566.84;4905262;29;20402;-89
2022/05/26 05:59:24;;;;;;;30.42;16.88;;;;;;;21.39;66.76;99579.25;4920562;29;20040;-91
2022/05/26 06:01:49;;;;;;;29.35;16.67;;;;;;;21.55;66.99;99589.59;4888554;29;20031;-91
2022/05/26 06:04:18;;;;;;;28.50;16.42;;;;;;;21.55;66.61;99586.88;4909614;29;20058;-92
2022/05/26 06:06:44;;;;;;;16.77;10.25;;;;;;;21.84;64.72;99598.84;4926745;29;20035;-92
2022/05/26 06:09:18;;;;;;;14.88;8.75;;;;;;;21.86;63.57;99578.16;4927073;29;20034;-95
2022/05/26 06:11:47;;;;;;;10.82;7.43;;;;;;;22.16;62.50;99586.22;4900045;29;20042;-94
2022/05/26 06:14:15;;;;;;;12.52;7.53;;;;;;;22.27;62.70;99587.41;4902434;29;20043;-95
2022/05/26 06:16:41;;;;;;;14.18;7.90;;;;;;;22.29;62.54;99567.88;4895197;29;20432;-93
2022/05/26 06:19:06;;;;;;;26.58;9.52;;;;;;;22.44;62.60;99566.38;4890560;29;20035;-93
2022/05/26 06:22:15;;;;;;;15.45;7.85;;;;;;;22.72;60.92;99574.69;4916549;29;20520;-95
2022/05/26 06:24:45;;;;;;;14.50;7.35;;;;;;;22.79;61.05;99569.44;4886627;29;20044;-94
2022/05/26 06:29:57;;;;;;;20.25;9.88;;;;;;;22.97;60.78;99565.28;4912000;29;20027;-92
2022/05/26 06:37:55;;;;;;;30.10;9.70;;;;;;;23.31;61.01;99581.59;4912359;29;20046;-91
2022/05/26 06:40:23;;;;;;;21.13;9.32;;;;;;;23.38;60.61;99568.84;4916393;29;20501;-91
2022/05/26 06:42:49;;;;;;;19.02;9.00;;;;;;;23.61;59.41;99595.75;4925292;29;20453;-91
2022/05/26 06:45:15;;;;;;;16.75;9.38;;;;;;;23.63;60.14;99585.22;4912851;29;20063;-89
2022/05/26 06:47:59;;;;;;;15.18;7.88;;;;;;;23.60;59.36;99575.72;4886976;29;20159;-91
2022/05/26 06:50:28;;;;;;;16.17;8.15;;;;;;;23.76;59.42;99592.31;4914623;29;20031;-92
2022/05/26 06:53:01;;;;;;;19.45;8.90;;;;;;;23.85;59.43;99583.09;4925058;29;20055;-90
2022/05/26 06:55:29;;;;;;;16.55;8.75;;;;;;;23.97;59.86;99583.03;4902733;29;20542;-91
2022/05/26 06:57:55;;;;;;;17.67;7.72;;;;;;;23.96;58.31;99571.19;4890539;29;20039;-92
2022/05/26 07:00:45;;;;;;;11.35;7.22;;;;;;;24.21;57.27;99602.09;4905198;29;20052;-93
2022/05/26 07:03:16;;;;;;;11.98;8.18;;;;;;;24.18;56.95;99582.78;4889670;29;20044;-93
2022/05/26 07:05:41;;;;;;;12.27;6.70;;;;;;;24.13;55.73;99577.50;4894248;29;20024;-95
2022/05/26 07:09:09;;;;;;;16.13;7.10;;;;;;;24.36;56.01;99589.53;4902790;29;20043;-92
2022/05/26 07:11:38;;;;;;;13.73;6.65;;;;;;;24.23;55.48;99562.44;4911823;29;20039;-93
2022/05/26 07:14:12;;;;;;;15.30;6.70;;;;;;;24.34;54.74;99564.31;4914445;28;20478;-95
2022/05/26 07:16:39;;;;;;;13.90;6.68;;;;;;;24.57;55.03;99599.44;4916248;29;20031;-92
2022/05/26 07:19:04;;;;;;;32.75;7.80;;;;;;;24.68;54.98;99588.72;4911010;29;20042;-93
2022/05/26 07:21:30;;;;;;;27.25;7.60;;;;;;;24.71;54.57;99587.97;4925844;29;20027;-94
2022/05/26 07:23:56;;;;;;;12.35;5.82;;;;;;;24.87;54.02;99593.47;4925516;29;20058;-92
2022/05/26 07:26:21;;;;;;;11.50;6.55;;;;;;;24.77;53.90;99581.03;4924784;29;20019;-93
2022/05/26 07:28:51;;;;;;;14.15;7.50;;;;;;;24.89;54.69;99589.19;4940885;29;20019;-94
2022/05/26 07:31:17;;;;;;;16.13;6.30;;;;;;;25.12;53.71;99611.34;4928742;29;20513;-94
2022/05/26 07:33:43;;;;;;;13.50;6.68;;;;;;;25.13;54.05;99588.16;4909545;29;20085;-94
2022/05/26 07:41:16;;;;;;;19.88;9.10;;;;;;;25.24;53.31;99584.84;4911088;29;20096;-93
2022/05/26 07:41:39;;;;;;;11.85;5.90;;;;;;;25.30;53.04;99575.13;4930268;29;20070;-94
2022/05/26 07:44:17;;;;;;;11.02;5.32;;;;;;;25.36;52.17;99579.19;4919617;29;20030;-92
2022/05/26 07:46:48;;;;;;;11.70;5.63;;;;;;;25.33;50.96;99582.66;4922511;29;20058;-92
2022/05/26 07:49:16;;;;;;;13.80;6.45;;;;;;;25.52;51.25;99598.38;4920510;29;20055;-92
2022/05/26 07:51:42;;;;;;;8.10;5.32;;;;;;;25.38;52.02;99598.91;4908147;29;20023;-90
2022/05/26 07:54:07;;;;;;;12.13;5.65;;;;;;;25.47;51.72;99587.66;4922199;29;20052;-92
2022/05/26 07:56:36;;;;;;;13.40;5.70;;;;;;;25.62;52.43;99603.31;4907925;29;20042;-93
2022/05/26 07:59:09;;;;;;;10.10;5.93;;;;;;;25.73;51.16;99607.09;4906390;29;20034;-95
2022/05/26 08:01:35;;;;;;;13.68;5.88;;;;;;;25.70;50.25;99594.03;4923500;29;20074;-93
2022/05/26 08:04:00;;;;;;;14.27;5.50;;;;;;;25.60;50.52;99594.63;4892289;29;20114;-96
2022/05/26 08:06:35;;;;;;;14.43;5.15;;;;;;;25.68;50.41;99590.84;4911174;29;20107;-94
2022/05/26 08:09:00;;;;;;;12.38;5.00;;;;;;;25.86;50.05;99582.06;4908122;29;20027;-94
2022/05/26 08:11:29;;;;;;;15.25;5.82;;;;;;;26.16;49.73;99616.16;4897300;29;20380;-89
2022/05/26 08:20:27;;;;;;;11.88;5.30;;;;;;;26.39;47.89;99598.81;4888820;29;20128;-95
2022/05/26 08:22:55;;;;;;;15.90;5.80;;;;;;;26.42;48.54;99600.84;4860711;29;20025;-95
2022/05/26 08:25:21;;;;;;;13.38;5.22;;;;;;;26.62;48.49;99612.59;4852925;29;20060;-93
2022/05/26 08:27:49;;;;;;;13.35;5.85;;;;;;;26.70;49.61;99613.53;4851607;29;20033;-95
2022/05/26 08:30:15;;;;;;;12.20;5.10;;;;;;;26.78;49.28;99606.94;4844984;29;20519;-94
2022/05/26 08:32:44;;;;;;;15.55;5.13;;;;;;;26.87;49.02;99612.19;4884027;29;20076;-96
2022/05/26 08:35:12;;;;;;;11.35;5.30;;;;;;;26.85;48.70;99598.75;4883932;29;20025;-94
2022/05/26 08:37:38;;;;;;;10.05;5.25;;;;;;;27.00;47.99;99608.06;4884784;29;20096;-95
2022/05/26 08:40:05;;;;;;;11.25;4.95;;;;;;;27.01;48.83;99601.34;4879440;29;20449;-93
2022/05/26 08:42:33;;;;;;;16.17;5.82;;;;;;;27.24;48.29;99633.66;4870752;29;20073;-95
2022/05/26 08:45:12;;;;;;;10.07;4.90;;;;;;;27.18;47.29;99613.81;4871600;29;20480;-94
2022/05/26 08:47:51;;;;;;;10.63;5.15;;;;;;;27.37;47.07;99633.06;4898965;29;20044;-95
2022/05/26 08:50:53;;;;;;;7.60;4.80;;;;;;;27.19;45.12;99607.91;4919811;29;20051;-93
2022/05/26 08:53:45;;;;;;;8.52;4.50;;;;;;;27.30;44.82;99615.56;4954170;29;20047;-94
2022/05/26 08:56:43;;;;;;;12.90;5.07;;;;;;;27.23;45.75;99605.22;4937753;29;20027;-93
2022/05/26 08:59:30;;;;;;;14.13;4.68;;;;;;;27.39;44.71;99618.84;4898431;29;20040;-94
2022/05/26 09:01:59;;;;;;;17.20;7.88;;;;;;;27.42;44.56;99620.88;4896379;29;20040;-91
2022/05/26 09:04:27;;;;;;;10.93;4.28;;;;;;;27.48;44.09;99630.41;4883357;29;20127;-93
2022/05/26 09:12:56;;;;;;;9.40;4.72;;;;;;;27.50;45.01;99630.84;4900205;29;20145;-92
2022/05/26 09:15:25;;;;;;;10.07;4.50;;;;;;;27.41;45.31;99633.09;4896935;29;20032;-91
2022/05/26 09:17:51;;;;;;;13.57;5.18;;;;;;;27.48;44.42;99624.88;4899084;29;20115;-90
2022/05/26 09:20:49;;;;;;;11.38;5.03;;;;;;;27.60;44.78;99635.72;4873164;29;20047;-91
2022/05/26 09:23:27;;;;;;;10.75;4.55;;;;;;;27.46;44.67;99624.47;4878144;29;20041;-88
2022/05/26 09:26:02;;;;;;;9.15;5.00;;;;;;;27.76;44.75;99634.69;4859046;29;20038;-91
2022/05/26 09:29:06;;;;;;;11.35;4.88;;;;;;;27.82;42.18;99630.41;4864575;29;20112;-94
2022/05/26 09:31:54;;;;;;;10.00;4.10;;;;;;;27.80;42.29;99643.81;4878775;29;20451;-92
2022/05/26 09:34:32;;;;;;;9.43;4.38;;;;;;;27.90;42.84;99648.72;4891521;29;20044;-94
2022/05/26 09:37:15;;;;;;;9.88;4.50;;;;;;;27.90;43.19;99626.56;4872230;29;20028;-94
2022/05/26 09:39:54;;;;;;;7.95;3.90;;;;;;;27.91;40.65;99641.19;4891148;29;20101;-93
2022/05/26 09:42:29;;;;;;;7.53;4.07;;;;;;;28.05;42.30;99662.72;4890854;29;20039;-93
2022/05/26 09:44:59;;;;;;;8.30;4.40;;;;;;;27.87;40.69;99621.81;4915867;29;20028;-92
2022/05/26 09:47:29;;;;;;;10.80;4.40;;;;;;;28.00;40.36;99630.63;4895251;29;20032;-89
2022/05/26 09:50:02;;;;;;;7.90;3.77;;;;;;;28.05;40.27;99644.13;4888779;29;20020;-94
2022/05/26 09:52:38;;;;;;;10.82;3.88;;;;;;;27.97;41.41;99636.91;4873079;29;20471;-94
2022/05/26 09:55:10;;;;;;;7.55;4.47;;;;;;;28.16;40.96;99649.75;4873722;29;20491;-93
2022/05/26 09:57:46;;;;;;;;;;;;;;;;;;;;;
2022/05/26 10:00:38;;;;;;;11.13;4.20;;;;;;;28.17;41.70;99648.59;4927880;29;20034;-92
2022/05/26 10:03:11;;;;;;;6.45;3.78;;;;;;;28.33;39.53;99668.53;4912901;29;20063;-91
2022/05/26 10:06:11;;;;;;;8.95;4.65;;;;;;;28.14;40.75;99649.34;4924613;29;20023;-95
2022/05/26 10:09:12;;;;;;;9.35;4.00;;;;;;;28.13;40.98;99658.84;4942523;29;20050;-94
2022/05/26 10:15:01;;;;;;;8.85;4.43;;;;;;;27.98;42.94;99666.19;4951590;28;20056;-95
2022/05/26 10:24:55;;;;;;;8.75;4.07;;;;;;;27.97;41.60;99687.56;4942349;29;20025;-95
2022/05/26 10:27:55;;;;;;;11.55;4.32;;;;;;;27.81;42.22;99676.66;4954299;28;20027;-92
2022/05/26 10:30:23;;;;;;;10.00;4.45;;;;;;;27.82;41.72;99678.25;4960301;29;20027;-89
2022/05/26 10:33:20;;;;;;;10.10;3.95;;;;;;;27.82;40.86;99669.94;4961696;29;20047;-96
2022/05/26 10:36:10;;;;;;;9.10;3.85;;;;;;;27.99;41.20;99681.63;4963473;29;20027;-94
2022/05/26 10:39:00;;;;;;;9.82;4.40;;;;;;;27.95;41.19;99689.91;4966963;29;20100;-95
2022/05/26 10:41:49;;;;;;;8.88;4.15;;;;;;;27.89;41.66;99657.38;4971225;29;20045;-96
2022/05/26 10:44:40;;;;;;;9.88;4.57;;;;;;;27.80;42.58;99646.59;4968934;29;20035;-95
2022/05/26 10:47:18;;;;;;;7.93;3.92;;;;;;;27.86;41.67;99647.88;4974621;28;20043;-94
2022/05/26 10:50:18;;;;;;;11.50;4.45;;;;;;;27.86;42.27;99655.38;4940752;29;20028;-94
2022/05/26 10:53:26;;;;;;;;;;;;;;;;;;;;;
2022/05/26 10:56:25;;;;;;;;;;;;;;;;;;;;;
2022/05/26 11:07:28;;;;;;;11.48;3.97;;;;;;;27.95;39.62;99648.38;4878711;29;20034;-96
2022/05/26 11:10:34;;;;;;;11.55;4.15;;;;;;;28.17;41.07;99681.81;4802412;29;20043;-94
2022/05/26 11:23:04;;;;;;;7.47;3.88;;;;;;;28.42;40.31;99646.03;4807314;29;20050;-89
2022/05/26 11:25:45;;;;;;;8.68;4.63;;;;;;;28.54;39.97;99662.41;4792301;29;20062;-93
2022/05/26 11:28:34;;;;;;;8.88;3.95;;;;;;;28.57;39.32;99655.31;4873103;29;20048;-91
2022/05/26 11:36:56;;;;;;;8.65;4.10;;;;;;;28.56;39.52;99651.75;4917561;29;20496;-92
2022/05/26 11:39:31;;;;;;;7.78;4.07;;;;;;;28.60;38.35;99638.72;4907689;29;20101;-91
2022/05/26 11:42:24;;;;;;;10.15;3.97;;;;;;;28.75;39.21;99644.38;4908979;29;20174;-91
2022/05/26 11:45:08;;;;;;;7.78;3.83;;;;;;;28.84;38.33;99657.88;4914272;29;20039;-90
2022/05/26 11:48:05;;;;;;;7.68;3.83;;;;;;;28.85;38.67;99676.13;4931504;29;20039;-92
2022/05/26 11:50:57;;;;;;;7.35;3.83;;;;;;;28.69;38.22;99646.69;4889186;29;20031;-92
2022/05/26 11:53:45;;;;;;;8.90;4.15;;;;;;;28.76;37.57;99644.00;4887291;29;20043;-91
2022/05/26 11:56:26;;;;;;;9.32;3.85;;;;;;;28.94;37.01;99655.19;4901869;29;20043;-91
2022/05/26 11:59:24;;;;;;;9.82;4.13;;;;;;;29.05;38.04;99651.69;4939489;29;20091;-91
2022/05/26 12:02:08;;;;;;;7.38;3.50;;;;;;;29.11;37.08;99645.41;4951732;28;20556;-93
2022/05/26 12:04:45;;;;;;;7.07;3.78;;;;;;;29.01;37.47;99629.47;4949139;29;20071;-95
2022/05/26 12:07:32;;;;;;;22.20;5.57;;;;;;;29.23;36.57;99638.75;4941576;28;20481;-93
2022/05/26 12:10:26;;;;;;;7.90;4.00;;;;;;;29.36;36.81;99655.84;4963595;28;20041;-95
2022/05/26 12:13:32;;;;;;;11.43;4.10;;;;;;;28.96;36.99;99611.22;4945094;28;20125;-91
2022/05/26 12:16:22;;;;;;;8.35;3.80;;;;;;;29.06;36.70;99622.78;4927686;29;20528;-91
2022/05/26 12:18:49;;;;;;;10.43;4.03;;;;;;;28.97;37.32;99614.78;4937591;29;20035;-93
2022/05/26 12:21:42;;;;;;;7.55;3.65;;;;;;;29.00;38.43;99616.81;4934319;29;20035;-90
2022/05/26 12:24:32;;;;;;;8.80;3.50;;;;;;;28.98;37.56;99619.16;4915335;28;20031;-89
2022/05/26 12:26:58;;;;;;;9.45;3.63;;;;;;;28.95;36.95;99603.28;4946479;28;20031;-90
2022/05/26 12:29:54;;;;;;;12.07;5.13;;;;;;;29.10;35.96;99616.09;4923408;28;20070;-90
2022/05/26 12:32:47;;;;;;;;;;;;;;;;;;;;;
2022/05/26 12:35:31;;;;;;;6.15;2.85;;;;;;;29.36;34.19;99605.91;4945867;29;20039;-91
2022/05/26 12:41:24;;;;;;;8.10;2.92;;;;;;;29.60;34.31;99607.97;4934422;28;20505;-89
2022/05/26 12:44:25;;;;;;;10.50;2.95;;;;;;;29.45;33.24;99597.22;4944645;28;20061;-91
2022/05/26 12:47:11;;;;;;;8.25;2.80;;;;;;;29.55;33.72;99593.69;4923340;28;20122;-91
2022/05/26 12:49:46;;;;;;;8.73;2.70;;;;;;;29.72;34.22;99597.75;4950203;28;20031;-94
2022/05/26 12:52:20;;;;;;;7.32;2.95;;;;;;;29.56;33.57;99567.53;4961038;28;20066;-95
2022/05/26 12:55:33;;;;;;;6.97;2.97;;;;;;;29.81;34.21;99578.72;4939951;29;20034;-95
2022/05/26 12:58:49;;;;;;;11.15;2.90;;;;;;;29.91;33.34;99563.28;4958499;29;20047;-93
2022/05/26 13:01:40;;;;;;;6.22;2.80;;;;;;;29.95;30.96;99566.84;4914048;29;20055;-95
2022/05/26 13:07:18;;;;;;;6.35;2.70;;;;;;;30.33;31.27;99576.41;5144254;23;20055;-92
2022/05/26 13:09:49;;;;;;;7.97;3.15;;;;;;;30.49;30.96;99580.78;4920623;29;20042;-92
2022/05/26 13:12:22;;;;;;;6.45;3.28;;;;;;;30.71;31.39;99573.97;4907100;29;20405;-94
2022/05/26 13:14:55;;;;;;;9.43;2.85;;;;;;;30.64;31.19;99564.84;4957616;28;20034;-95
2022/05/26 13:17:23;;;;;;;6.63;2.80;;;;;;;30.80;30.91;99548.53;4921427;28;20027;-92
2022/05/26 13:20:04;;;;;;;6.68;2.72;;;;;;;30.88;30.56;99552.91;4942740;28;20034;-96